Castle Rock, Minnesota
Current Conditions -  °F | °C
As of 4:26 PM on Monday 24 Nov 2014 (Local Time) from KLVN Reporting Station
Light Snow Light Snow  
Wind Chill:   Ceiling: 500
Heat Index: 16°   Visibility: 1mi
Dew Point: 12°   Wind: 16mph
Humidity: 86%   Direction: 310°NW
Pressure: 29.65"   Gusts: 28mph
Location:  44.54°N, 93.15°W
Report Text: KLVN 242226Z AUTO 31014G24KT 1SM -SN BKN005 OVC019 M09/M11 A2965 RMK AO2
Loading
Personal Weather Stations






























Interactive Weather Map New forecast layout! Learn more

10-Day Weather Forecast

Advertisements
Track Severe Weather on mobile